Time;durP1;ratioP1;P1;durP2;ratioP2;P2;SDS_P1;SDS_P2;PMS_P1;PMS_P2;Temp;Humidity;BMP_temperature;BMP_pressure;BME280_temperature;BME280_humidity;BME280_pressure;Samples;Min_cycle;Max_cycle;Signal;HPM_P1;HPM_P2
2023/01/15 00:00:50;;;;;;;7.87;1.30;;;6.40;99.90;;;;;;5012965;28;20110;-61
2023/01/15 00:03:16;;;;;;;7.53;1.03;;;6.40;99.90;;;;;;5012914;28;20100;-61
2023/01/15 00:05:42;;;;;;;7.63;1.20;;;6.40;99.90;;;;;;5012707;28;20056;-62
2023/01/15 00:08:08;;;;;;;5.97;1.03;;;6.40;99.90;;;;;;5012615;28;20113;-62
2023/01/15 00:10:34;;;;;;;4.63;0.97;;;6.40;99.90;;;;;;5012656;28;20034;-61
2023/01/15 00:13:00;;;;;;;5.53;1.47;;;6.40;99.90;;;;;;5012700;28;20256;-61
2023/01/15 00:15:26;;;;;;;5.30;1.13;;;6.40;99.90;;;;;;5012917;28;20116;-62
2023/01/15 00:17:52;;;;;;;6.47;1.47;;;6.40;99.90;;;;;;5012215;28;20164;-62
2023/01/15 00:20:17;;;;;;;4.97;1.30;;;6.50;99.90;;;;;;5012680;28;20444;-62
2023/01/15 00:22:43;;;;;;;3.57;0.90;;;6.50;99.90;;;;;;5012601;28;20511;-62
2023/01/15 00:27:54;;;;;;;6.50;1.10;;;6.50;99.90;;;;;;5012153;28;20037;-61
2023/01/15 00:30:20;;;;;;;7.33;1.20;;;6.50;99.90;;;;;;4994852;28;20026;-61
2023/01/15 00:32:46;;;;;;;8.27;1.90;;;6.40;99.90;;;;;;4994710;28;20488;-61
2023/01/15 00:35:18;;;;;;;6.23;1.60;;;6.40;99.90;;;;;;4994612;28;20033;-61
2023/01/15 00:37:44;;;;;;;7.20;1.87;;;6.40;99.90;;;;;;5012081;28;20037;-61
2023/01/15 00:40:11;;;;;;;8.30;1.50;;;6.40;99.90;;;;;;5012097;28;20375;-61
2023/01/15 00:42:37;;;;;;;8.73;2.37;;;6.50;99.90;;;;;;5012489;28;20100;-62
2023/01/15 00:45:08;;;;;;;14.13;3.07;;;6.50;99.90;;;;;;4994409;28;20033;-61
2023/01/15 00:47:43;;;;;;;11.97;4.20;;;6.50;99.90;;;;;;4994365;28;20033;-61
2023/01/15 00:50:12;;;;;;;11.93;4.20;;;6.60;99.90;;;;;;5011946;28;20040;-60
2023/01/15 00:52:38;;;;;;;14.63;4.10;;;6.60;99.90;;;;;;4994082;28;20486;-61
2023/01/15 00:55:05;;;;;;;8.93;2.73;;;6.70;99.90;;;;;;5011715;28;20060;-61
2023/01/15 00:57:31;;;;;;;10.87;3.17;;;6.80;99.90;;;;;;5011697;28;20376;-61
2023/01/15 00:59:57;;;;;;;6.07;1.43;;;6.80;99.90;;;;;;4994363;28;20129;-62
2023/01/15 01:02:23;;;;;;;5.03;1.67;;;6.90;99.90;;;;;;5011817;28;20105;-62
2023/01/15 01:04:49;;;;;;;7.03;2.00;;;6.90;99.90;;;;;;5011549;28;20049;-62
2023/01/15 01:07:15;;;;;;;5.90;2.20;;;6.90;99.90;;;;;;5011597;28;20093;-61
2023/01/15 01:09:41;;;;;;;4.83;1.93;;;6.90;99.90;;;;;;4994155;28;20124;-62
2023/01/15 01:12:07;;;;;;;5.10;2.00;;;6.90;99.90;;;;;;4994053;28;20125;-62
2023/01/15 01:14:35;;;;;;;6.30;1.60;;;6.90;99.90;;;;;;4993873;28;20033;-62
2023/01/15 01:17:01;;;;;;;6.93;2.10;;;6.80;99.90;;;;;;4993870;28;20402;-62
2023/01/15 01:19:27;;;;;;;8.33;2.57;;;6.90;99.90;;;;;;5011192;28;20025;-62
2023/01/15 01:21:53;;;;;;;9.10;3.70;;;6.90;99.90;;;;;;4993936;28;20502;-62
2023/01/15 01:24:21;;;;;;;9.77;3.97;;;6.80;99.90;;;;;;4993676;28;20105;-62
2023/01/15 01:26:47;;;;;;;9.60;3.60;;;6.80;99.90;;;;;;5011160;28;20026;-61
2023/01/15 01:29:19;;;;;;;12.30;3.40;;;6.90;99.90;;;;;;5011106;28;20034;-61
2023/01/15 01:31:46;;;;;;;9.77;2.57;;;6.90;99.90;;;;;;5011201;28;20506;-61
2023/01/15 01:34:13;;;;;;;5.73;1.83;;;6.90;99.90;;;;;;5011457;28;20040;-61
2023/01/15 01:36:41;;;;;;;6.17;2.13;;;6.90;99.90;;;;;;5011078;28;20053;-62
2023/01/15 01:39:12;;;;;;;5.10;1.73;;;7.00;99.90;;;;;;5010957;28;20490;-61
2023/01/15 01:41:37;;;;;;;5.57;2.00;;;7.00;99.90;;;;;;5011180;28;20033;-61
2023/01/15 01:44:07;;;;;;;5.30;1.43;;;7.00;99.90;;;;;;5010988;28;20026;-60
2023/01/15 01:46:35;;;;;;;6.67;2.00;;;7.00;99.90;;;;;;4993307;28;20037;-62
2023/01/15 01:49:07;;;;;;;6.07;1.60;;;7.00;99.90;;;;;;4993510;28;20034;-61
2023/01/15 01:52:02;;;;;;;7.33;2.40;;;7.00;99.90;;;;;;5011205;28;20038;-60
2023/01/15 01:54:29;;;;;;;11.20;2.10;;;7.00;99.90;;;;;;4990909;28;20045;-60
2023/01/15 01:56:55;;;;;;;8.13;2.20;;;7.00;99.90;;;;;;5010952;28;20033;-60
2023/01/15 01:59:24;;;;;;;8.47;2.60;;;7.00;99.90;;;;;;4993392;28;20030;-60
2023/01/15 02:01:51;;;;;;;8.57;2.45;;;7.00;99.90;;;;;;4993630;28;20030;-61
2023/01/15 02:04:20;;;;;;;8.83;2.13;;;6.90;99.90;;;;;;5010898;28;20111;-60
2023/01/15 02:06:46;;;;;;;10.00;2.47;;;6.90;99.90;;;;;;4993332;28;20517;-60
2023/01/15 02:09:12;;;;;;;7.90;2.50;;;7.00;99.90;;;;;;5010936;28;20030;-61
2023/01/15 02:11:38;;;;;;;6.77;2.37;;;6.90;99.90;;;;;;4993490;28;20030;-59
2023/01/15 02:14:42;;;;;;;6.80;1.83;;;6.90;99.90;;;;;;4993251;28;20041;-60
2023/01/15 02:17:20;;;;;;;8.73;2.50;;;6.90;99.90;;;;;;4993112;28;20164;-60
2023/01/15 02:20:19;;;;;;;8.03;2.43;;;6.90;99.90;;;;;;4993215;28;20038;-60
2023/01/15 02:23:20;;;;;;;8.50;2.27;;;6.90;99.90;;;;;;4993297;28;20068;-60
2023/01/15 02:26:23;;;;;;;8.70;2.37;;;6.90;99.90;;;;;;4976442;28;20038;-60
2023/01/15 02:28:52;;;;;;;7.60;2.40;;;6.90;99.90;;;;;;4993166;28;20037;-61
2023/01/15 02:31:23;;;;;;;;;;;6.80;99.90;;;;;;4993818;28;20033;-61
2023/01/15 02:33:57;;;;;;;9.10;2.40;;;6.80;99.90;;;;;;4993109;28;19909;-60
2023/01/15 02:36:26;;;;;;;11.60;2.10;;;6.80;99.90;;;;;;4992755;28;20054;-61
2023/01/15 02:38:55;;;;;;;6.63;1.67;;;6.70;99.90;;;;;;5010392;28;20116;-61
2023/01/15 02:41:27;;;;;;;5.13;1.53;;;6.70;99.90;;;;;;4993063;28;20032;-60
2023/01/15 02:43:56;;;;;;;4.97;1.00;;;6.70;99.90;;;;;;4992669;28;20037;-60
2023/01/15 02:46:29;;;;;;;5.70;1.07;;;6.70;99.90;;;;;;4992821;28;20050;-60
2023/01/15 02:48:58;;;;;;;4.63;1.20;;;6.70;99.90;;;;;;4992722;28;20471;-60
2023/01/15 02:51:55;;;;;;;6.20;1.07;;;6.70;99.90;;;;;;4992882;28;20376;-60
2023/01/15 02:54:25;;;;;;;8.73;1.40;;;6.70;99.90;;;;;;4988108;28;20149;-61
2023/01/15 02:56:53;;;;;;;11.17;1.73;;;6.60;99.90;;;;;;4992647;28;20041;-60
2023/01/15 02:59:27;;;;;;;7.17;1.70;;;6.70;99.90;;;;;;4992474;28;20030;-60
2023/01/15 03:01:58;;;;;;;9.37;1.70;;;6.60;99.90;;;;;;4992896;28;20033;-60
2023/01/15 03:04:30;;;;;;;7.33;1.93;;;6.70;99.90;;;;;;4992763;28;20483;-60
2023/01/15 03:07:13;;;;;;;8.10;1.70;;;6.70;99.90;;;;;;5010235;28;20095;-60
2023/01/15 03:09:39;;;;;;;6.43;1.83;;;6.80;99.90;;;;;;4992895;28;20386;-60
2023/01/15 03:12:20;;;;;;;5.07;1.40;;;6.80;99.90;;;;;;4992664;28;20041;-60
2023/01/15 03:15:10;;;;;;;4.87;1.00;;;6.80;99.90;;;;;;4992518;28;20395;-60
2023/01/15 03:20:19;;;;;;;7.68;1.80;;;6.80;99.90;;;;;;4897869;29;20044;-52
2023/01/15 03:22:50;;;;;;;10.53;2.43;;;6.80;99.90;;;;;;4916004;29;20036;-51
2023/01/15 03:25:24;;;;;;;7.23;1.77;;;6.80;99.90;;;;;;4917065;29;20031;-51
2023/01/15 03:27:56;;;;;;;5.90;1.83;;;6.80;99.90;;;;;;4902862;29;20067;-53
2023/01/15 03:30:23;;;;;;;5.20;1.07;;;6.70;99.90;;;;;;4918888;29;20524;-52
2023/01/15 03:32:52;;;;;;;9.73;1.53;;;6.70;99.90;;;;;;4934807;29;20028;-51
2023/01/15 03:35:42;;;;;;;5.67;1.30;;;6.60;99.90;;;;;;4918603;29;20516;-52
2023/01/15 03:38:11;;;;;;;5.20;0.80;;;6.60;99.90;;;;;;4934396;29;20028;-53
2023/01/15 03:41:00;;;;;;;3.03;0.73;;;6.60;99.90;;;;;;4918729;29;20034;-53
2023/01/15 03:43:55;;;;;;;5.80;0.90;;;6.60;99.90;;;;;;4922001;29;20122;-52
2023/01/15 03:46:41;;;;;;;4.80;0.70;;;6.50;99.90;;;;;;4926996;29;20037;-53
2023/01/15 03:49:32;;;;;;;4.97;1.00;;;6.50;99.90;;;;;;4935778;29;20405;-54
2023/01/15 03:52:20;;;;;;;2.23;0.77;;;6.50;99.90;;;;;;4918667;29;20086;-52
2023/01/15 03:55:16;;;;;;;3.03;0.80;;;6.50;99.90;;;;;;4934395;29;20122;-53
2023/01/15 03:57:49;;;;;;;4.43;1.57;;;6.40;99.90;;;;;;4935417;29;20031;-51
2023/01/15 04:00:37;;;;;;;6.18;1.35;;;6.50;99.90;;;;;;4934175;29;20042;-53
2023/01/15 04:03:05;;;;;;;5.17;1.03;;;6.50;99.90;;;;;;4918492;29;20031;-53
2023/01/15 04:05:33;;;;;;;;;;;6.50;99.90;;;;;;4934500;29;20028;-53
2023/01/15 04:08:00;;;;;;;5.30;0.97;;;6.40;99.90;;;;;;4918209;29;19910;-55
2023/01/15 04:10:27;;;;;;;6.40;1.30;;;6.40;99.90;;;;;;4918259;29;20035;-52
2023/01/15 04:12:55;;;;;;;8.43;1.20;;;6.40;99.90;;;;;;4933994;29;20485;-52
2023/01/15 04:15:21;;;;;;;5.33;1.20;;;6.50;99.90;;;;;;4933868;29;20122;-50
2023/01/15 04:17:47;;;;;;;6.27;1.30;;;6.40;99.90;;;;;;4917721;29;20032;-50
2023/01/15 04:20:14;;;;;;;5.27;1.17;;;6.40;99.90;;;;;;4917984;29;20058;-53
2023/01/15 04:22:42;;;;;;;6.67;1.20;;;6.40;99.90;;;;;;4918035;29;20066;-53
2023/01/15 04:25:09;;;;;;;9.27;1.83;;;6.40;99.90;;;;;;4934882;29;20450;-52
2023/01/15 04:27:35;;;;;;;7.27;1.20;;;6.40;99.90;;;;;;4933847;29;20024;-50
2023/01/15 04:30:00;;;;;;;6.67;1.07;;;6.40;99.90;;;;;;4934822;29;20121;-54
2023/01/15 04:32:26;;;;;;;6.90;1.40;;;6.30;99.90;;;;;;4935244;29;20043;-52
2023/01/15 04:34:52;;;;;;;7.63;1.60;;;6.40;99.90;;;;;;4934711;29;20039;-51
2023/01/15 04:37:18;;;;;;;8.57;1.90;;;6.50;99.90;;;;;;4934617;29;20135;-53
2023/01/15 04:39:45;;;;;;;8.20;2.03;;;6.50;99.90;;;;;;4934628;29;20032;-53
2023/01/15 04:44:58;;;;;;;8.87;2.40;;;6.60;99.90;;;;;;4934544;29;20149;-53
2023/01/15 04:47:24;;;;;;;8.33;1.80;;;6.60;99.90;;;;;;4934644;29;20232;-52
2023/01/15 04:49:50;;;;;;;6.90;1.57;;;6.60;99.90;;;;;;4934574;29;20132;-53
2023/01/15 04:52:15;;;;;;;9.27;1.50;;;6.70;99.90;;;;;;4934587;29;20497;-53
2023/01/15 04:54:41;;;;;;;13.07;1.60;;;6.80;99.90;;;;;;4934188;29;20063;-53
2023/01/15 04:57:07;;;;;;;9.03;1.90;;;6.80;99.90;;;;;;4934330;29;20119;-50
2023/01/15 04:59:33;;;;;;;6.60;1.13;;;6.80;99.90;;;;;;4934433;29;20164;-52
2023/01/15 05:01:58;;;;;;;6.73;1.60;;;6.80;99.90;;;;;;4934757;29;20035;-51
2023/01/15 05:04:25;;;;;;;6.23;1.60;;;6.80;99.90;;;;;;4934174;29;20397;-53
2023/01/15 05:06:52;;;;;;;9.03;1.60;;;6.80;99.90;;;;;;4934084;29;20166;-52
2023/01/15 05:09:18;;;;;;;12.17;1.90;;;6.90;99.90;;;;;;4934132;29;20054;-54
2023/01/15 05:11:43;;;;;;;11.30;2.00;;;6.90;99.90;;;;;;4934379;29;20054;-53
2023/01/15 05:14:09;;;;;;;9.13;1.50;;;6.90;99.90;;;;;;4933993;29;20288;-53
2023/01/15 05:16:37;;;;;;;9.77;2.33;;;6.80;99.90;;;;;;4934037;29;20088;-49
2023/01/15 05:19:06;;;;;;;9.33;2.00;;;6.80;99.90;;;;;;4933747;29;20035;-52
2023/01/15 05:21:35;;;;;;;13.23;2.57;;;6.90;99.90;;;;;;4933945;29;20409;-53
2023/01/15 05:24:03;;;;;;;11.20;2.55;;;6.90;99.90;;;;;;4933807;29;20032;-53
2023/01/15 05:26:33;;;;;;;13.50;2.77;;;6.80;99.90;;;;;;4933773;29;20036;-52
2023/01/15 05:29:00;;;;;;;12.67;2.17;;;6.90;99.90;;;;;;4933798;29;20485;-53
2023/01/15 05:31:26;;;;;;;14.47;2.30;;;6.80;99.90;;;;;;4934022;29;20040;-55
2023/01/15 05:33:53;;;;;;;10.80;2.33;;;6.90;99.90;;;;;;4933676;29;20028;-53
2023/01/15 05:36:21;;;;;;;13.33;2.50;;;6.90;99.90;;;;;;4933597;29;20123;-52
2023/01/15 05:38:48;;;;;;;10.40;1.90;;;6.80;99.90;;;;;;4933365;29;20378;-54
2023/01/15 05:44:04;;;;;;;9.83;1.60;;;6.90;99.90;;;;;;4933665;29;20067;-48
2023/01/15 05:46:30;;;;;;;7.93;1.67;;;6.90;99.90;;;;;;4933485;29;20039;-50
2023/01/15 05:49:04;;;;;;;11.30;2.10;;;6.80;99.90;;;;;;4933895;29;20035;-50
2023/01/15 05:51:29;;;;;;;8.40;1.67;;;6.90;99.90;;;;;;4933752;29;20381;-51
2023/01/15 05:53:59;;;;;;;9.87;1.67;;;6.90;99.90;;;;;;4933639;29;20103;-53
2023/01/15 05:56:25;;;;;;;6.15;1.10;;;6.90;99.90;;;;;;4933447;29;20106;-53
2023/01/15 05:58:51;;;;;;;11.93;1.50;;;6.90;99.90;;;;;;4933319;29;20036;-50
2023/01/15 06:01:17;;;;;;;7.17;1.50;;;6.80;99.90;;;;;;4933402;29;20036;-51
2023/01/15 06:03:42;;;;;;;6.37;1.10;;;6.90;99.90;;;;;;4933441;29;20027;-53
2023/01/15 06:06:17;;;;;;;7.67;1.00;;;6.90;99.90;;;;;;4933542;29;20035;-53
2023/01/15 06:08:43;;;;;;;8.10;1.40;;;6.90;99.90;;;;;;4933191;29;20028;-52
2023/01/15 06:11:10;;;;;;;9.73;1.10;;;6.90;99.90;;;;;;4933454;29;20089;-54
2023/01/15 06:13:38;;;;;;;9.70;1.73;;;6.90;99.90;;;;;;4933062;29;20039;-54
2023/01/15 06:16:04;;;;;;;8.50;1.23;;;6.90;99.90;;;;;;4933375;29;20098;-52
2023/01/15 06:18:32;;;;;;;8.03;1.47;;;6.80;99.90;;;;;;4932922;29;20512;-52
2023/01/15 06:21:05;;;;;;;7.97;1.93;;;6.80;99.90;;;;;;4933364;29;20402;-51
2023/01/15 06:23:31;;;;;;;11.97;2.07;;;6.90;99.90;;;;;;4933168;29;20024;-52
2023/01/15 06:26:00;;;;;;;8.17;1.40;;;6.80;99.90;;;;;;4933644;29;20168;-53
2023/01/15 06:28:26;;;;;;;10.60;1.40;;;6.90;99.90;;;;;;4932944;29;20043;-53
2023/01/15 06:30:52;;;;;;;14.17;2.17;;;6.80;99.90;;;;;;4933131;29;20564;-55
2023/01/15 06:33:18;;;;;;;6.50;1.20;;;6.80;99.90;;;;;;4933174;29;20056;-52
2023/01/15 06:35:44;;;;;;;8.37;1.17;;;6.90;99.90;;;;;;4933151;29;20035;-49
2023/01/15 06:38:09;;;;;;;9.23;1.70;;;6.90;99.90;;;;;;4932862;29;20036;-52
2023/01/15 06:40:36;;;;;;;8.17;1.30;;;6.90;99.90;;;;;;4933171;29;20062;-53
2023/01/15 06:48:32;;;;;;;8.33;2.53;;;6.90;99.90;;;;;;4902799;29;20040;-53
2023/01/15 06:50:58;;;;;;;9.60;1.93;;;6.80;99.90;;;;;;4933388;29;20099;-54
2023/01/15 06:53:24;;;;;;;9.40;1.43;;;6.90;99.90;;;;;;4936528;29;20106;-53
2023/01/15 06:55:50;;;;;;;12.33;1.60;;;6.80;99.90;;;;;;4936881;29;20039;-53
2023/01/15 06:58:16;;;;;;;5.60;1.10;;;6.90;99.90;;;;;;4936580;29;20024;-52
2023/01/15 07:00:43;;;;;;;10.17;1.60;;;6.90;99.90;;;;;;4936462;29;20031;-52
2023/01/15 07:03:09;;;;;;;9.93;1.90;;;6.90;99.90;;;;;;4936523;29;20328;-51
2023/01/15 07:05:37;;;;;;;7.43;1.57;;;6.90;99.90;;;;;;4936353;29;20108;-52
2023/01/15 07:08:03;;;;;;;8.63;1.17;;;6.90;99.90;;;;;;4936184;29;20032;-53
2023/01/15 07:10:29;;;;;;;8.77;1.60;;;6.80;99.90;;;;;;4936430;29;20063;-51
2023/01/15 07:12:55;;;;;;;9.03;1.57;;;6.80;99.90;;;;;;4936583;29;20038;-52
2023/01/15 07:15:20;;;;;;;10.23;1.73;;;6.80;99.90;;;;;;4936307;29;20035;-51
2023/01/15 07:17:46;;;;;;;7.70;1.30;;;6.80;99.90;;;;;;4935853;29;20028;-54
2023/01/15 07:20:12;;;;;;;4.53;1.10;;;6.80;99.90;;;;;;4936207;29;20370;-53
2023/01/15 07:22:37;;;;;;;6.80;1.00;;;6.80;99.90;;;;;;4936252;29;20262;-54
2023/01/15 07:25:04;;;;;;;7.17;1.20;;;6.80;99.90;;;;;;4936040;29;20353;-51
2023/01/15 07:27:29;;;;;;;7.87;1.43;;;6.80;99.90;;;;;;4936001;29;20043;-52
2023/01/15 07:29:55;;;;;;;7.70;1.33;;;6.80;99.90;;;;;;4935964;29;20043;-52
2023/01/15 07:32:21;;;;;;;7.83;1.60;;;6.80;99.90;;;;;;4936166;29;20036;-53
2023/01/15 07:34:47;;;;;;;8.07;1.57;;;6.80;99.90;;;;;;4935821;29;20046;-53
2023/01/15 07:37:12;;;;;;;11.83;1.60;;;6.70;99.90;;;;;;4935803;29;20055;-53
2023/01/15 07:39:38;;;;;;;7.80;1.27;;;6.80;99.90;;;;;;4935829;29;20039;-49
2023/01/15 07:50:20;;;;;;;10.83;1.23;;;6.70;99.90;;;;;;4935837;29;20249;-52
2023/01/15 07:52:46;;;;;;;5.93;1.58;;;6.70;99.90;;;;;;4935699;29;20477;-53
2023/01/15 07:55:12;;;;;;;12.93;1.60;;;6.70;99.90;;;;;;4935488;29;20086;-52
2023/01/15 07:57:40;;;;;;;7.37;1.30;;;6.70;99.90;;;;;;4935309;29;20468;-50
2023/01/15 08:00:07;;;;;;;8.20;1.50;;;6.70;99.90;;;;;;4935372;29;20035;-53
2023/01/15 08:02:38;;;;;;;11.80;1.80;;;6.70;99.90;;;;;;4935404;29;20401;-50
2023/01/15 08:05:04;;;;;;;14.50;2.97;;;6.70;99.90;;;;;;4935270;29;20404;-50
2023/01/15 08:07:30;;;;;;;12.87;2.53;;;6.70;99.90;;;;;;4935103;29;20134;-50
2023/01/15 08:09:55;;;;;;;7.13;2.40;;;6.70;99.90;;;;;;4935245;29;20532;-50
2023/01/15 08:15:14;;;;;;;14.47;2.47;;;6.80;99.90;;;;;;4935243;29;20042;-53
2023/01/15 08:17:41;;;;;;;12.27;2.33;;;6.70;99.90;;;;;;4934922;29;20039;-51
2023/01/15 08:20:11;;;;;;;6.50;1.87;;;6.70;99.90;;;;;;4935056;29;20032;-50
2023/01/15 08:22:37;;;;;;;6.75;1.40;;;6.80;99.90;;;;;;4935226;29;20374;-50
2023/01/15 08:25:04;;;;;;;8.07;1.60;;;6.80;99.90;;;;;;4934674;29;20047;-54
2023/01/15 08:27:30;;;;;;;7.57;1.20;;;6.80;99.90;;;;;;4935074;29;20237;-50
2023/01/15 08:29:55;;;;;;;7.07;1.20;;;6.80;99.90;;;;;;4934849;29;20118;-54
2023/01/15 08:32:22;;;;;;;7.67;1.50;;;6.70;99.90;;;;;;4934932;29;20034;-52
2023/01/15 08:34:48;;;;;;;6.87;1.43;;;6.80;99.90;;;;;;4934810;29;20058;-52
2023/01/15 08:37:13;;;;;;;6.20;1.50;;;6.70;99.90;;;;;;4934709;29;20044;-53
2023/01/15 08:39:39;;;;;;;8.43;1.83;;;6.60;99.90;;;;;;4934597;29;20032;-53
2023/01/15 08:42:05;;;;;;;11.17;2.67;;;6.60;99.90;;;;;;4934967;29;20533;-52
2023/01/15 08:44:31;;;;;;;5.00;0.90;;;6.60;99.90;;;;;;4934674;29;20114;-53
2023/01/15 08:46:57;;;;;;;7.43;1.30;;;6.60;99.90;;;;;;4934365;29;20114;-50
2023/01/15 08:49:23;;;;;;;8.70;1.67;;;6.60;99.90;;;;;;4934491;29;20114;-50
2023/01/15 08:51:50;;;;;;;5.47;1.57;;;6.50;99.90;;;;;;4934537;29;20035;-51
2023/01/15 08:54:21;;;;;;;8.97;1.60;;;6.50;99.90;;;;;;4934222;29;20031;-50
2023/01/15 08:56:47;;;;;;;4.57;1.20;;;6.40;99.90;;;;;;4934318;29;20038;-53
2023/01/15 08:59:13;;;;;;;7.47;1.50;;;6.40;99.90;;;;;;4934257;29;20032;-52
2023/01/15 09:01:39;;;;;;;4.80;1.50;;;6.40;99.90;;;;;;4934384;29;20091;-53
2023/01/15 09:04:05;;;;;;;3.67;0.80;;;6.30;99.90;;;;;;4934123;29;20032;-50
2023/01/15 09:06:31;;;;;;;5.97;0.80;;;6.30;99.90;;;;;;4934052;29;20028;-52
2023/01/15 09:09:00;;;;;;;6.23;1.00;;;6.30;99.90;;;;;;4934089;29;20036;-51
2023/01/15 09:11:27;;;;;;;8.15;0.70;;;6.30;99.90;;;;;;4934170;29;20071;-49
2023/01/15 09:13:53;;;;;;;3.60;0.63;;;6.20;99.90;;;;;;4933432;29;20477;-52
2023/01/15 09:16:19;;;;;;;8.00;1.20;;;6.20;99.90;;;;;;4933900;29;20032;-52
2023/01/15 09:18:45;;;;;;;6.93;1.00;;;6.10;99.90;;;;;;4933852;29;20130;-49
2023/01/15 09:21:10;;;;;;;6.03;1.00;;;6.10;99.90;;;;;;4933963;29;20036;-53
2023/01/15 09:23:36;;;;;;;7.73;1.70;;;6.20;99.90;;;;;;4934080;29;20035;-54
2023/01/15 09:26:05;;;;;;;4.00;1.10;;;6.30;99.90;;;;;;4933979;29;20043;-53
2023/01/15 09:28:33;;;;;;;6.60;1.17;;;6.50;99.90;;;;;;4933749;29;20039;-50
2023/01/15 09:30:59;;;;;;;7.53;1.43;;;6.60;99.90;;;;;;4933976;29;20043;-54
2023/01/15 09:33:24;;;;;;;8.03;1.63;;;6.60;99.90;;;;;;4933723;29;20218;-49
2023/01/15 09:35:51;;;;;;;6.57;1.50;;;6.80;99.90;;;;;;4933771;29;20039;-49
2023/01/15 09:38:18;;;;;;;6.73;2.13;;;6.80;99.90;;;;;;4933495;29;20027;-51
2023/01/15 09:40:49;;;;;;;8.83;2.00;;;6.90;99.90;;;;;;4933931;29;20028;-53
2023/01/15 09:43:21;;;;;;;9.23;2.13;;;7.00;99.90;;;;;;4933656;29;20032;-53
2023/01/15 09:45:58;;;;;;;10.30;2.53;;;7.00;99.90;;;;;;4934055;29;20036;-52
2023/01/15 09:48:45;;;;;;;13.00;3.03;;;7.10;99.90;;;;;;4933365;29;20249;-50
2023/01/15 09:51:38;;;;;;;11.30;3.13;;;7.20;99.90;;;;;;4933432;29;20052;-53
2023/01/15 09:54:22;;;;;;;13.23;2.73;;;7.40;99.90;;;;;;4933402;29;20414;-53
2023/01/15 09:56:48;;;;;;;11.33;2.80;;;7.60;99.90;;;;;;4933125;29;20552;-54
2023/01/15 09:59:36;;;;;;;11.47;3.50;;;8.00;99.90;;;;;;4933462;29;20453;-51
2023/01/15 10:02:16;;;;;;;9.57;2.17;;;8.90;99.90;;;;;;4933599;29;20083;-53
2023/01/15 10:04:50;;;;;;;8.17;1.67;;;9.20;99.90;;;;;;4933316;29;20028;-53
2023/01/15 10:07:22;;;;;;;8.63;2.73;;;8.90;99.90;;;;;;4933132;29;20047;-53
2023/01/15 10:09:56;;;;;;;7.67;1.40;;;9.40;99.90;;;;;;4933565;29;20370;-52
2023/01/15 10:12:38;;;;;;;10.10;1.90;;;9.40;99.90;;;;;;4933335;29;20122;-50
2023/01/15 10:15:13;;;;;;;9.27;1.93;;;9.10;99.90;;;;;;4933209;29;20512;-51
2023/01/15 10:17:52;;;;;;;9.57;1.50;;;8.90;99.90;;;;;;4932910;29;20087;-53
2023/01/15 10:20:32;;;;;;;6.30;1.10;;;9.30;99.90;;;;;;4933664;29;20028;-52
2023/01/15 10:23:08;;;;;;;8.97;1.50;;;9.40;99.90;;;;;;4933329;29;20039;-53
2023/01/15 10:26:17;;;;;;;6.37;1.03;;;9.80;99.90;;;;;;4933081;29;20028;-49
2023/01/15 10:28:42;;;;;;;3.88;0.70;;;10.60;99.90;;;;;;4936993;29;20042;-50
2023/01/15 10:31:21;;;;;;;5.15;1.42;;;11.60;99.90;;;;;;4937205;29;20484;-52
2023/01/15 10:34:20;;;;;;;8.77;1.10;;;12.30;98.40;;;;;;4937060;29;20039;-51
2023/01/15 10:37:03;;;;;;;4.63;1.23;;;12.90;96.90;;;;;;4937009;29;20778;-52
2023/01/15 10:39:59;;;;;;;9.80;3.42;;;13.50;95.60;;;;;;4936910;29;20047;-51
2023/01/15 10:42:49;;;;;;;8.35;1.60;;;13.90;93.70;;;;;;4936979;29;20070;-52
2023/01/15 10:45:18;;;;;;;6.07;1.20;;;13.10;94.60;;;;;;4936652;29;20035;-54
2023/01/15 10:47:47;;;;;;;6.85;1.60;;;11.60;96.90;;;;;;4936665;29;20095;-52
2023/01/15 10:50:18;;;;;;;4.72;0.90;;;10.40;99.40;;;;;;4936712;29;20046;-52
2023/01/15 10:53:13;;;;;;;7.53;1.47;;;9.90;99.90;;;;;;4936732;29;20032;-50
2023/01/15 10:55:47;;;;;;;6.90;1.37;;;9.80;99.90;;;;;;4929369;29;20055;-51
2023/01/15 10:58:29;;;;;;;7.97;1.30;;;9.90;99.90;;;;;;4936652;29;20047;-49
2023/01/15 11:01:07;;;;;;;7.47;1.20;;;9.40;99.90;;;;;;4919603;29;20043;-51
2023/01/15 11:03:39;;;;;;;6.63;1.20;;;9.10;99.90;;;;;;4936609;29;20035;-53
2023/01/15 11:06:10;;;;;;;7.50;1.40;;;8.70;99.90;;;;;;4936670;29;20445;-53
2023/01/15 11:08:38;;;;;;;10.93;1.47;;;8.60;99.90;;;;;;4936318;29;20072;-53
2023/01/15 11:20:34;;;;;;;9.20;1.37;;;8.00;99.90;;;;;;4936175;29;20046;-47
2023/01/15 11:23:11;;;;;;;3.93;1.13;;;7.90;99.90;;;;;;4936193;29;20098;-51
2023/01/15 11:25:43;;;;;;;9.77;1.60;;;7.90;99.90;;;;;;4936048;29;20051;-50
2023/01/15 11:28:14;;;;;;;8.23;1.03;;;7.90;99.90;;;;;;4935762;29;20508;-51
2023/01/15 11:30:40;;;;;;;6.00;1.40;;;8.00;99.90;;;;;;4936036;29;20039;-51
2023/01/15 11:33:22;;;;;;;7.60;1.13;;;8.70;99.90;;;;;;4936229;29;20394;-48
2023/01/15 11:35:57;;;;;;;9.43;1.40;;;8.80;99.90;;;;;;4936001;29;20032;-53
2023/01/15 11:38:36;;;;;;;7.93;1.43;;;8.70;99.90;;;;;;4935012;29;20094;-53
2023/01/15 11:41:04;;;;;;;8.85;1.48;;;8.50;99.90;;;;;;4935761;29;20449;-51
2023/01/15 11:52:10;;;;;;;6.90;1.93;;;7.80;99.90;;;;;;4935959;29;20042;-50
2023/01/15 11:54:42;;;;;;;5.63;0.90;;;7.70;99.90;;;;;;4935558;29;20067;-50
2023/01/15 11:57:09;;;;;;;6.43;1.10;;;7.70;99.90;;;;;;4935486;29;20392;-51
2023/01/15 11:59:36;;;;;;;4.70;1.30;;;7.70;99.90;;;;;;4935198;29;20035;-50
2023/01/15 12:02:09;;;;;;;8.10;1.10;;;7.70;99.90;;;;;;4935443;29;20500;-52
2023/01/15 12:04:45;;;;;;;2.70;0.80;;;7.70;99.90;;;;;;4935410;29;20110;-48
2023/01/15 12:07:14;;;;;;;2.10;0.70;;;7.80;99.90;;;;;;4935180;29;20052;-53
2023/01/15 12:10:02;;;;;;;4.65;0.90;;;7.80;99.90;;;;;;4935220;29;20043;-51
2023/01/15 12:12:49;;;;;;;6.60;1.10;;;7.90;99.90;;;;;;4935380;29;20036;-47
2023/01/15 12:15:56;;;;;;;2.57;0.70;;;7.80;99.90;;;;;;4935162;29;20505;-49
2023/01/15 12:18:43;;;;;;;7.17;1.30;;;7.70;99.90;;;;;;4892242;29;20055;-47
2023/01/15 12:21:37;;;;;;;5.20;1.20;;;7.70;99.90;;;;;;4935092;29;20396;-52
2023/01/15 12:24:28;;;;;;;3.97;0.80;;;7.80;99.90;;;;;;4934787;29;20163;-51
2023/01/15 12:27:22;;;;;;;2.83;0.73;;;7.80;99.90;;;;;;4934835;29;20504;-48
2023/01/15 12:30:21;;;;;;;6.07;0.70;;;7.70;99.90;;;;;;4935064;29;20114;-49
2023/01/15 12:33:04;;;;;;;6.22;0.90;;;7.70;99.90;;;;;;4924578;29;20090;-47
2023/01/15 12:35:33;;;;;;;3.47;0.63;;;7.80;99.90;;;;;;4934704;29;20047;-48
2023/01/15 12:38:14;;;;;;;2.45;0.75;;;8.60;99.90;;;;;;4934486;29;20058;-49
2023/01/15 12:40:59;;;;;;;4.77;1.10;;;9.30;99.90;;;;;;4934701;29;20050;-50
2023/01/15 12:46:29;;;;;;;6.83;1.90;;;10.30;99.90;;;;;;4934696;29;20075;-51
2023/01/15 12:49:00;;;;;;;3.63;0.93;;;10.50;99.90;;;;;;4933650;29;20183;-47
2023/01/15 12:51:44;;;;;;;5.83;0.87;;;10.60;99.90;;;;;;4934476;29;20527;-48
2023/01/15 12:54:14;;;;;;;4.20;0.87;;;10.20;99.90;;;;;;4934369;29;20115;-51
2023/01/15 12:56:59;;;;;;;4.87;0.70;;;9.60;99.90;;;;;;4934375;29;20400;-47
2023/01/15 12:59:36;;;;;;;4.97;1.23;;;8.90;99.90;;;;;;4934258;29;20039;-52
2023/01/15 13:02:20;;;;;;;4.60;1.20;;;8.60;99.90;;;;;;4934357;29;20520;-48
2023/01/15 13:04:51;;;;;;;4.30;0.80;;;8.30;99.90;;;;;;4934054;29;20107;-48
2023/01/15 13:07:40;;;;;;;3.30;0.60;;;8.10;99.90;;;;;;4934165;29;20465;-50
2023/01/15 13:10:17;;;;;;;4.05;0.90;;;8.00;99.90;;;;;;4934209;29;20489;-48
2023/01/15 13:12:43;;;;;;;7.60;1.60;;;7.80;99.90;;;;;;4934653;29;20049;-53
2023/01/15 13:15:14;;;;;;;3.90;0.90;;;7.70;99.90;;;;;;4934000;29;20035;-50
2023/01/15 13:17:48;;;;;;;1.87;0.70;;;7.70;99.90;;;;;;4934054;29;20036;-50
2023/01/15 13:20:38;;;;;;;5.03;0.90;;;7.60;99.90;;;;;;4934023;29;20035;-52
2023/01/15 13:23:12;;;;;;;4.13;1.13;;;7.60;99.90;;;;;;4933963;29;20449;-50
2023/01/15 13:25:59;;;;;;;6.47;0.73;;;7.60;99.90;;;;;;4933802;29;20024;-51
2023/01/15 13:28:43;;;;;;;4.17;0.90;;;7.60;99.90;;;;;;4933674;29;20046;-49
2023/01/15 13:31:37;;;;;;;6.10;1.03;;;7.60;99.90;;;;;;4933989;29;20040;-51
2023/01/15 13:34:13;;;;;;;6.03;0.87;;;7.60;99.90;;;;;;4933646;29;20039;-51
2023/01/15 13:36:43;;;;;;;5.70;1.03;;;7.60;99.90;;;;;;4933783;29;20441;-48
2023/01/15 13:39:21;;;;;;;6.47;0.90;;;7.60;99.90;;;;;;4933604;29;20039;-49
2023/01/15 13:44:39;;;;;;;3.80;0.90;;;7.50;99.90;;;;;;4933779;29;20079;-48
2023/01/15 13:47:11;;;;;;;4.57;0.70;;;7.50;99.90;;;;;;4933552;29;20042;-47
2023/01/15 13:49:46;;;;;;;10.17;2.00;;;7.40;99.90;;;;;;4933499;29;20035;-46
2023/01/15 13:52:44;;;;;;;6.47;1.00;;;7.40;99.90;;;;;;4933408;29;20484;-48
2023/01/15 13:55:40;;;;;;;3.88;0.80;;;7.50;99.90;;;;;;4891206;29;20138;-46
2023/01/15 13:58:22;;;;;;;6.27;0.90;;;7.50;99.90;;;;;;4917134;29;20044;-50
2023/01/15 14:00:59;;;;;;;4.23;0.80;;;7.50;99.90;;;;;;4933275;29;20031;-49
2023/01/15 14:03:30;;;;;;;5.50;1.30;;;7.60;99.90;;;;;;4933293;29;20485;-51
2023/01/15 14:06:05;;;;;;;5.27;0.90;;;7.60;99.90;;;;;;4933444;29;20024;-50
2023/01/15 14:08:43;;;;;;;6.83;1.20;;;7.70;99.90;;;;;;4933146;29;20024;-51
2023/01/15 14:11:41;;;;;;;7.83;1.63;;;7.80;99.90;;;;;;4933665;29;20039;-50